Terminal Aerodrome Forecast
Issued by NWS

Home | Current Version | Previous Version | Text Only | Print | Product List | Glossary On
Versions: 1 2 3 4 5 6 7 8 9 10 11 12 13 14 15 16 17 18 19 20 21 22 23 24
000
FTUS44 KOUN 050520
TAFWWR
TAF
KWWR 050520Z 0506/0606 16013KT P6SM OVC025
     FM051200 16014G20KT 5SM -TSRA OVC020CB
     FM051900 16019G28KT P6SM OVC015 PROB30 0519/0522 5SM -TSRA
      OVC012CB
     FM060000 16016G23KT P6SM OVC010
      TEMPO 0602/0606 3SM -TSRA OVC008CB=

USA.gov is the U.S. government's official web portal to all federal, state and local government web resources and services.